createdAt,value
2018-09-14T00:02:17.853Z,13.60
2018-09-14T00:04:46.496Z,13.60
2018-09-14T00:07:16.231Z,13.60
2018-09-14T00:09:45.544Z,13.60
2018-09-14T00:12:14.984Z,13.60
2018-09-14T00:14:44.666Z,13.60
2018-09-14T00:17:13.902Z,13.60
2018-09-14T00:19:42.728Z,13.60
2018-09-14T00:22:12.027Z,13.60
2018-09-14T00:24:40.856Z,13.60
2018-09-14T00:27:09.528Z,13.60
2018-09-14T00:29:38.263Z,13.60
2018-09-14T00:32:07.616Z,13.60
2018-09-14T00:34:36.583Z,13.60
2018-09-14T00:37:05.702Z,13.60
2018-09-14T00:39:35.069Z,13.60
2018-09-14T00:42:04.758Z,13.50
2018-09-14T00:44:34.487Z,13.50
2018-09-14T00:47:03.871Z,13.50
2018-09-14T00:49:32.811Z,13.50
2018-09-14T00:52:01.374Z,13.50
2018-09-14T00:54:30.816Z,13.50
2018-09-14T00:56:59.958Z,13.50
2018-09-14T00:59:28.782Z,13.50
2018-09-14T01:01:57.636Z,13.40
2018-09-14T01:04:26.929Z,13.40
2018-09-14T01:06:55.599Z,13.40
2018-09-14T01:09:26.206Z,13.50
2018-09-14T01:11:55.816Z,13.50
2018-09-14T01:14:28.186Z,13.50
2018-09-14T01:16:58.493Z,13.50
2018-09-14T01:19:27.904Z,13.50
2018-09-14T01:21:56.662Z,13.40
2018-09-14T01:24:27.318Z,13.50
2018-09-14T01:26:56.508Z,13.40
2018-09-14T01:29:25.112Z,13.50
2018-09-14T01:31:54.080Z,13.50
2018-09-14T01:34:22.852Z,13.40
2018-09-14T01:36:51.802Z,13.50
2018-09-14T01:39:20.572Z,13.40
2018-09-14T01:41:49.365Z,13.40
2018-09-14T01:44:18.135Z,13.40
2018-09-14T01:46:47.492Z,13.40
2018-09-14T01:49:16.018Z,13.40
2018-09-14T01:56:42.137Z,13.50
2018-09-14T02:01:45.555Z,13.50
2018-09-14T02:04:15.131Z,13.50
2018-09-14T02:06:44.009Z,13.50
2018-09-14T02:09:12.829Z,13.50
2018-09-14T02:11:41.745Z,13.50
2018-09-14T02:14:11.015Z,13.50
2018-09-14T02:16:39.721Z,13.50
2018-09-14T02:19:08.361Z,13.40
2018-09-14T02:21:36.672Z,13.40
2018-09-14T02:24:05.993Z,13.40
2018-09-14T02:26:34.979Z,13.40
2018-09-14T02:29:03.513Z,13.50
2018-09-14T02:31:31.380Z,13.50
2018-09-14T02:34:00.313Z,13.40
2018-09-14T02:36:29.528Z,13.40
2018-09-14T02:38:59.567Z,13.40
2018-09-14T02:41:29.170Z,13.40
2018-09-14T02:43:58.076Z,13.40
2018-09-14T02:46:27.454Z,13.40
2018-09-14T02:48:56.099Z,13.50
2018-09-14T02:51:24.670Z,13.50
2018-09-14T02:53:53.655Z,13.50
2018-09-14T02:56:22.909Z,13.50
2018-09-14T02:58:51.834Z,13.60
2018-09-14T03:01:20.742Z,13.60
2018-09-14T03:03:49.342Z,13.60
2018-09-14T03:06:18.689Z,13.50
2018-09-14T03:08:47.982Z,13.40
2018-09-14T03:11:17.819Z,13.40
2018-09-14T03:13:48.629Z,13.30
2018-09-14T03:16:17.265Z,13.30
2018-09-14T03:18:46.141Z,13.30
2018-09-14T03:21:15.532Z,13.30
2018-09-14T03:23:44.659Z,13.20
2018-09-14T03:26:13.587Z,13.20
2018-09-14T03:28:42.318Z,13.20
2018-09-14T03:31:11.017Z,13.30
2018-09-14T03:33:39.733Z,13.30
2018-09-14T03:36:09.313Z,13.30
2018-09-14T03:38:38.377Z,13.30
2018-09-14T03:41:07.522Z,13.30
2018-09-14T03:43:36.437Z,13.30
2018-09-14T03:46:05.398Z,13.30
2018-09-14T03:48:34.051Z,13.40
2018-09-14T03:51:04.177Z,13.40
2018-09-14T03:53:33.939Z,13.40
2018-09-14T03:56:03.394Z,13.40
2018-09-14T03:58:32.790Z,13.40
2018-09-14T04:01:02.435Z,13.40
2018-09-14T04:03:33.131Z,13.40
2018-09-14T04:06:03.044Z,13.40
2018-09-14T04:08:32.704Z,13.40
2018-09-14T04:11:02.467Z,13.40
2018-09-14T04:13:31.560Z,13.40
2018-09-14T04:16:01.289Z,13.40
2018-09-14T04:18:31.221Z,13.40
2018-09-14T04:21:01.020Z,13.40
2018-09-14T04:23:30.892Z,13.40
2018-09-14T04:26:04.163Z,13.40
2018-09-14T04:28:33.831Z,13.40
2018-09-14T04:31:03.670Z,13.40
2018-09-14T04:33:33.263Z,13.40
2018-09-14T04:36:03.339Z,13.40
2018-09-14T04:38:32.755Z,13.40
2018-09-14T04:41:02.533Z,13.40
2018-09-14T04:43:31.427Z,13.40
2018-09-14T04:46:01.322Z,13.40
2018-09-14T04:48:31.104Z,13.30
2018-09-14T04:51:00.983Z,13.30
2018-09-14T04:53:30.514Z,13.30
2018-09-14T04:55:59.846Z,13.30
2018-09-14T04:58:29.653Z,13.30
2018-09-14T05:00:59.674Z,13.30
2018-09-14T05:03:29.247Z,13.30
2018-09-14T05:05:58.935Z,13.30
2018-09-14T05:08:28.461Z,13.30
2018-09-14T05:10:58.552Z,13.20
2018-09-14T05:13:27.830Z,13.10
2018-09-14T05:15:57.353Z,13.10
2018-09-14T05:18:27.178Z,13.00
2018-09-14T05:20:57.367Z,13.00
2018-09-14T05:23:27.130Z,13.10
2018-09-14T05:25:56.821Z,13.10
2018-09-14T05:28:26.471Z,13.00
2018-09-14T05:30:56.284Z,13.10
2018-09-14T05:33:26.560Z,13.10
2018-09-14T05:35:56.115Z,13.00
2018-09-14T05:38:25.450Z,13.00
2018-09-14T05:40:55.919Z,13.00
2018-09-14T05:43:25.899Z,13.00
2018-09-14T05:45:55.260Z,13.00
2018-09-14T05:48:23.870Z,13.00
2018-09-14T05:50:58.399Z,13.00
2018-09-14T05:53:27.967Z,13.10
2018-09-14T05:56:00.196Z,13.10
2018-09-14T05:58:30.184Z,13.10
2018-09-14T06:00:59.350Z,13.10
2018-09-14T06:03:28.460Z,13.10
2018-09-14T06:05:57.649Z,13.10
2018-09-14T06:08:26.613Z,13.10
2018-09-14T06:10:55.858Z,13.10
2018-09-14T06:13:24.394Z,13.10
2018-09-14T06:15:54.494Z,13.20
2018-09-14T06:18:23.718Z,13.20
2018-09-14T06:20:52.706Z,13.20
2018-09-14T06:23:21.171Z,13.20
2018-09-14T06:25:50.426Z,13.20
2018-09-14T06:28:19.976Z,13.20
2018-09-14T06:30:48.985Z,13.20
2018-09-14T06:33:17.963Z,13.20
2018-09-14T06:35:47.660Z,13.20
2018-09-14T06:38:17.439Z,13.10
2018-09-14T06:40:47.297Z,13.10
2018-09-14T06:43:17.383Z,13.20
2018-09-14T06:45:46.249Z,13.20
2018-09-14T06:48:17.063Z,13.20
2018-09-14T06:50:46.728Z,13.20
2018-09-14T06:53:16.411Z,13.20
2018-09-14T06:55:45.931Z,13.20
2018-09-14T06:58:14.769Z,13.20
2018-09-14T07:00:45.007Z,13.20
2018-09-14T07:03:15.528Z,13.10
2018-09-14T07:05:45.030Z,13.10
2018-09-14T07:08:14.122Z,13.10
2018-09-14T07:10:43.400Z,13.10
2018-09-14T07:13:12.324Z,13.10
2018-09-14T07:15:40.980Z,13.20
2018-09-14T07:18:09.597Z,13.20
2018-09-14T07:20:38.980Z,13.20
2018-09-14T07:23:08.223Z,13.20
2018-09-14T07:25:37.098Z,13.10
2018-09-14T07:28:06.504Z,13.10
2018-09-14T07:30:36.258Z,13.10
2018-09-14T07:33:05.209Z,13.20
2018-09-14T07:35:34.675Z,13.20
2018-09-14T07:38:03.326Z,13.20
2018-09-14T07:40:33.134Z,13.30
2018-09-14T07:43:02.766Z,13.30
2018-09-14T07:45:33.829Z,13.30
2018-09-14T07:48:04.516Z,13.40
2018-09-14T07:50:34.757Z,13.50
2018-09-14T07:53:04.707Z,13.50
2018-09-14T07:55:34.129Z,13.60
2018-09-14T07:58:03.424Z,13.70
2018-09-14T08:00:32.419Z,13.70
2018-09-14T08:03:01.483Z,13.70
2018-09-14T08:05:29.552Z,13.70
2018-09-14T08:07:58.171Z,13.70
2018-09-14T08:10:26.775Z,13.70
2018-09-14T08:12:56.076Z,13.70
2018-09-14T08:15:24.541Z,13.60
2018-09-14T08:17:53.590Z,13.70
2018-09-14T08:20:21.790Z,13.70
2018-09-14T08:22:50.109Z,13.70
2018-09-14T08:25:18.728Z,13.70
2018-09-14T08:27:48.220Z,13.70
2018-09-14T08:30:17.754Z,13.70
2018-09-14T08:32:46.118Z,13.80
2018-09-14T08:35:14.645Z,13.80
2018-09-14T08:37:43.423Z,13.90
2018-09-14T08:40:12.601Z,13.90
2018-09-14T08:42:42.967Z,13.90
2018-09-14T08:45:11.594Z,13.90
2018-09-14T08:47:40.307Z,13.80
2018-09-14T08:50:09.671Z,13.80
2018-09-14T08:52:38.937Z,13.80
2018-09-14T08:55:07.587Z,13.80
2018-09-14T08:57:35.486Z,13.80
2018-09-14T09:00:04.033Z,13.80
2018-09-14T09:02:32.936Z,13.80
2018-09-14T09:05:01.524Z,13.80
2018-09-14T09:07:30.747Z,13.80
2018-09-14T09:10:00.635Z,13.80
2018-09-14T09:12:29.424Z,13.80
2018-09-14T09:14:58.018Z,13.80
2018-09-14T09:17:26.501Z,13.80
2018-09-14T09:19:55.243Z,13.70
2018-09-14T09:22:24.282Z,13.70
2018-09-14T09:24:52.529Z,13.70
2018-09-14T09:27:21.177Z,13.70
2018-09-14T09:29:50.457Z,13.70
2018-09-14T09:32:19.682Z,13.70
2018-09-14T09:34:49.039Z,13.80
2018-09-14T09:37:17.738Z,13.80
2018-09-14T09:39:46.014Z,13.80
2018-09-14T09:42:14.482Z,13.80
2018-09-14T09:44:42.989Z,13.80
2018-09-14T09:47:11.489Z,13.80
2018-09-14T09:49:40.167Z,13.80
2018-09-14T09:52:09.006Z,13.90
2018-09-14T09:54:38.149Z,13.90
2018-09-14T09:57:07.470Z,14.00
2018-09-14T09:59:37.170Z,14.00
2018-09-14T10:02:11.138Z,14.10
2018-09-14T10:04:44.768Z,14.10
2018-09-14T10:07:12.582Z,14.10
2018-09-14T10:09:40.851Z,14.20
2018-09-14T10:12:10.088Z,14.20
2018-09-14T10:14:39.104Z,14.30
2018-09-14T10:17:08.348Z,14.40
2018-09-14T10:19:38.417Z,14.40
2018-09-14T10:22:07.376Z,14.50
2018-09-14T10:24:36.356Z,14.60
2018-09-14T10:27:05.948Z,14.60
2018-09-14T10:29:34.974Z,14.60
2018-09-14T10:32:03.972Z,14.60
2018-09-14T10:34:32.902Z,14.60
2018-09-14T10:37:02.411Z,14.60
2018-09-14T10:39:31.091Z,14.50
2018-09-14T10:42:04.227Z,14.40
2018-09-14T10:44:32.725Z,14.40
2018-09-14T10:47:01.636Z,14.40
2018-09-14T10:49:30.614Z,14.40
2018-09-14T10:51:59.376Z,14.40
2018-09-14T10:54:28.305Z,14.50
2018-09-14T10:56:57.988Z,14.50
2018-09-14T10:59:27.359Z,14.60
2018-09-14T11:01:57.449Z,14.60
2018-09-14T11:04:26.897Z,14.70
2018-09-14T11:06:56.524Z,14.70
2018-09-14T11:09:26.416Z,14.70
2018-09-14T11:11:56.388Z,14.80
2018-09-14T11:14:25.682Z,14.90
2018-09-14T11:16:55.391Z,15.00
2018-09-14T11:19:25.299Z,15.10
2018-09-14T11:21:54.064Z,15.20
2018-09-14T11:24:22.913Z,15.20
2018-09-14T11:26:51.234Z,15.30
2018-09-14T11:29:20.294Z,15.50
2018-09-14T11:31:49.130Z,15.60
2018-09-14T11:34:17.574Z,15.60
2018-09-14T11:36:45.904Z,15.80
2018-09-14T11:39:14.896Z,15.90
2018-09-14T11:41:43.758Z,16.10
2018-09-14T11:44:12.693Z,16.20
2018-09-14T11:46:41.216Z,16.30
2018-09-14T11:49:10.617Z,16.30
2018-09-14T11:51:39.619Z,16.40
2018-09-14T11:54:08.591Z,16.40
2018-09-14T11:56:37.930Z,16.40
2018-09-14T11:59:06.333Z,16.30
2018-09-14T12:01:34.780Z,16.30
2018-09-14T12:04:03.366Z,16.30
2018-09-14T12:06:32.082Z,16.40
2018-09-14T12:09:01.399Z,16.40
2018-09-14T12:11:30.141Z,16.50
2018-09-14T12:13:58.760Z,16.60
2018-09-14T12:16:28.101Z,16.70
2018-09-14T12:18:56.628Z,16.70
2018-09-14T12:21:25.618Z,16.80
2018-09-14T12:23:54.338Z,16.90
2018-09-14T12:26:22.699Z,16.90
2018-09-14T12:28:51.195Z,17.00
2018-09-14T12:31:22.562Z,17.10
2018-09-14T12:33:51.809Z,17.20
2018-09-14T12:36:21.076Z,17.20
2018-09-14T12:38:49.593Z,17.30
2018-09-14T12:41:18.074Z,17.30
2018-09-14T12:43:47.022Z,17.30
2018-09-14T12:46:15.670Z,17.30
2018-09-14T12:48:44.891Z,17.20
2018-09-14T12:51:13.940Z,17.20
2018-09-14T12:53:42.625Z,17.20
2018-09-14T12:56:11.899Z,17.20
2018-09-14T12:58:41.283Z,17.10
2018-09-14T13:01:10.264Z,17.20
2018-09-14T13:03:40.080Z,17.10
2018-09-14T13:06:09.138Z,17.10
2018-09-14T13:08:38.118Z,17.10
2018-09-14T13:11:07.132Z,17.10
2018-09-14T13:13:35.881Z,17.10
2018-09-14T13:16:04.986Z,17.10
2018-09-14T13:18:34.472Z,17.10
2018-09-14T13:21:04.160Z,17.00
2018-09-14T13:23:35.644Z,16.90
2018-09-14T13:26:05.194Z,16.90
2018-09-14T13:28:35.460Z,16.80
2018-09-14T13:31:04.402Z,16.80
2018-09-14T13:33:46.142Z,16.80
2018-09-14T13:36:22.089Z,16.80
2018-09-14T13:38:51.945Z,16.80
2018-09-14T13:44:06.749Z,16.90
2018-09-14T13:46:38.064Z,16.90
2018-09-14T13:49:22.472Z,17.00
2018-09-14T14:03:19.263Z,17.10
2018-09-14T14:06:11.695Z,17.10
2018-09-14T14:19:49.877Z,17.10
2018-09-14T14:22:19.109Z,17.10
2018-09-14T14:24:47.820Z,17.10
2018-09-14T14:27:17.867Z,17.00
2018-09-14T14:29:51.994Z,17.00
2018-09-14T14:32:26.463Z,17.00
2018-09-14T14:37:40.820Z,17.00
2018-09-14T14:43:07.349Z,16.90
2018-09-14T14:45:36.778Z,16.90
2018-09-14T14:50:50.860Z,16.90
2018-09-14T14:53:19.843Z,16.90
2018-09-14T15:01:22.890Z,16.80
2018-09-14T15:03:51.736Z,16.80
2018-09-14T15:06:23.486Z,16.70
2018-09-14T15:08:53.602Z,16.70
2018-09-14T15:11:22.910Z,16.80
2018-09-14T15:13:51.833Z,16.90
2018-09-14T15:16:34.192Z,17.00
2018-09-14T15:19:02.619Z,17.00
2018-09-14T15:21:32.065Z,16.90
2018-09-14T15:24:02.412Z,16.90
2018-09-14T15:26:31.021Z,16.80
2018-09-14T15:29:00.149Z,16.80
2018-09-14T15:31:29.096Z,16.80
2018-09-14T15:33:58.134Z,16.70
2018-09-14T15:36:27.750Z,16.70
2018-09-14T15:39:08.328Z,16.70
2018-09-14T15:41:37.100Z,16.70
2018-09-14T15:44:07.879Z,16.60
2018-09-14T15:46:36.775Z,16.60
2018-09-14T15:49:05.848Z,16.60
2018-09-14T15:51:34.224Z,16.60
2018-09-14T15:54:04.021Z,16.50
2018-09-14T15:56:33.430Z,16.40
2018-09-14T15:59:03.683Z,16.40
2018-09-14T16:01:33.779Z,16.40
2018-09-14T16:04:02.396Z,16.30
2018-09-14T16:06:31.253Z,16.30
2018-09-14T16:09:00.201Z,16.30
2018-09-14T16:11:29.349Z,16.30
2018-09-14T16:13:57.400Z,16.30
2018-09-14T16:16:26.584Z,16.30
2018-09-14T16:18:55.617Z,16.30
2018-09-14T16:21:25.609Z,16.30
2018-09-14T16:23:54.379Z,16.30
2018-09-14T16:26:23.721Z,16.20
2018-09-14T16:28:52.835Z,16.20
2018-09-14T16:31:20.962Z,16.20
2018-09-14T16:33:50.208Z,16.20
2018-09-14T16:36:19.244Z,16.20
2018-09-14T16:38:48.322Z,16.20
2018-09-14T16:41:19.049Z,16.10
2018-09-14T16:43:49.337Z,16.10
2018-09-14T16:46:19.191Z,16.10
2018-09-14T16:48:47.439Z,16.10
2018-09-14T16:51:16.635Z,16.10
2018-09-14T16:53:46.727Z,16.00
2018-09-14T16:56:15.767Z,16.00
2018-09-14T16:58:45.379Z,15.90
2018-09-14T17:01:14.795Z,15.90
2018-09-14T17:03:43.668Z,15.90
2018-09-14T17:06:12.856Z,15.80
2018-09-14T17:08:42.602Z,15.80
2018-09-14T17:11:11.124Z,15.70
2018-09-14T17:13:40.159Z,15.70
2018-09-14T17:16:09.322Z,15.60
2018-09-14T17:18:37.418Z,15.60
2018-09-14T17:21:06.838Z,15.50
2018-09-14T17:23:35.724Z,15.40
2018-09-14T17:26:04.632Z,15.30
2018-09-14T17:28:33.213Z,15.10
2018-09-14T17:31:01.975Z,15.00
2018-09-14T17:33:31.053Z,14.80
2018-09-14T17:35:59.578Z,14.70
2018-09-14T17:38:28.753Z,14.60
2018-09-14T17:40:58.465Z,14.30
2018-09-14T17:43:27.392Z,14.10
2018-09-14T17:45:56.514Z,14.00
2018-09-14T17:48:25.479Z,13.80
2018-09-14T17:50:54.554Z,13.70
2018-09-14T17:53:22.500Z,13.60
2018-09-14T17:55:51.245Z,13.60
2018-09-14T17:58:20.101Z,13.50
2018-09-14T18:00:49.855Z,13.30
2018-09-14T18:03:19.259Z,13.20
2018-09-14T18:05:47.909Z,13.20
2018-09-14T18:08:17.344Z,13.10
2018-09-14T18:10:45.812Z,13.10
2018-09-14T18:13:14.880Z,13.00
2018-09-14T18:15:44.308Z,12.90
2018-09-14T18:18:12.662Z,12.70
2018-09-14T18:20:41.728Z,12.60
2018-09-14T18:23:11.041Z,12.60
2018-09-14T18:25:41.389Z,12.50
2018-09-14T18:28:10.110Z,12.50
2018-09-14T18:30:38.765Z,12.40
2018-09-14T18:33:07.404Z,12.30
2018-09-14T18:35:35.696Z,12.30
2018-09-14T18:38:04.053Z,12.20
2018-09-14T18:43:18.845Z,12.20
2018-09-14T18:45:47.345Z,12.10
2018-09-14T18:48:15.939Z,12.10
2018-09-14T18:50:45.457Z,12.10
2018-09-14T18:53:14.474Z,12.10
2018-09-14T18:55:43.925Z,12.10
2018-09-14T18:58:12.811Z,12.10
2018-09-14T19:00:41.861Z,12.10
2018-09-14T19:03:10.966Z,12.10
2018-09-14T19:05:40.304Z,12.00
2018-09-14T19:08:14.620Z,12.00
2018-09-14T19:10:44.875Z,12.00
2018-09-14T19:13:14.603Z,12.00
2018-09-14T19:15:44.365Z,12.00
2018-09-14T19:18:13.046Z,12.00
2018-09-14T19:23:27.095Z,11.90
2018-09-14T19:25:56.247Z,12.00
2018-09-14T19:28:24.986Z,12.00
2018-09-14T19:30:54.631Z,12.00
2018-09-14T19:33:24.191Z,12.00
2018-09-14T19:35:53.799Z,12.00
2018-09-14T19:38:22.882Z,12.00
2018-09-14T19:40:52.658Z,11.90
2018-09-14T19:43:21.449Z,11.90
2018-09-14T19:45:51.388Z,11.90
2018-09-14T19:48:20.330Z,11.80
2018-09-14T19:50:49.258Z,11.80
2018-09-14T19:53:22.610Z,11.70
2018-09-14T19:58:38.316Z,11.60
2018-09-14T20:01:19.984Z,11.60
2018-09-14T20:03:49.748Z,11.50
2018-09-14T20:06:18.993Z,11.50
2018-09-14T20:08:48.582Z,11.40
2018-09-14T20:11:17.512Z,11.40
2018-09-14T20:13:46.492Z,11.40
2018-09-14T20:16:15.598Z,11.40
2018-09-14T20:18:46.942Z,11.40
2018-09-14T20:29:44.921Z,11.30
2018-09-14T20:35:04.102Z,11.20
2018-09-14T20:40:21.768Z,11.00
2018-09-14T20:45:42.281Z,11.00
2018-09-14T20:48:23.443Z,11.10
2018-09-14T20:56:24.638Z,11.20
2018-09-14T21:04:26.245Z,11.30
2018-09-14T21:09:52.084Z,11.30
2018-09-14T21:20:44.234Z,11.60
2018-09-14T21:23:16.084Z,11.60
2018-09-14T21:25:45.910Z,11.70
2018-09-14T21:31:02.655Z,11.70
2018-09-14T21:33:32.051Z,11.70
2018-09-14T21:36:01.451Z,11.70
2018-09-14T21:41:15.374Z,11.60
2018-09-14T21:43:43.966Z,11.60
2018-09-14T21:46:14.035Z,11.60
2018-09-14T21:48:47.205Z,11.60
2018-09-14T21:51:17.144Z,11.60
2018-09-14T21:53:47.232Z,11.60
2018-09-14T21:56:21.683Z,11.60
2018-09-14T21:58:50.747Z,11.60
2018-09-14T22:01:27.691Z,11.50
2018-09-14T22:03:58.076Z,11.50
2018-09-14T22:06:27.543Z,11.50
2018-09-14T22:08:57.547Z,11.50
2018-09-14T22:11:27.633Z,11.50
2018-09-14T22:13:57.474Z,11.50
2018-09-14T22:16:32.554Z,11.50
2018-09-14T22:19:00.969Z,11.50
2018-09-14T22:24:18.455Z,11.50
2018-09-14T22:26:47.158Z,11.50
2018-09-14T22:29:22.672Z,11.50
2018-09-14T22:31:51.254Z,11.50
2018-09-14T22:34:20.302Z,11.60
2018-09-14T22:36:49.352Z,11.60
2018-09-14T22:39:18.162Z,11.70
2018-09-14T22:41:47.251Z,11.70
2018-09-14T22:44:16.788Z,11.80
2018-09-14T22:46:46.344Z,11.90
2018-09-14T22:49:16.158Z,12.00
2018-09-14T22:51:45.454Z,12.00
2018-09-14T22:54:14.239Z,12.10
2018-09-14T22:56:42.748Z,12.20
2018-09-14T22:59:11.273Z,12.30
2018-09-14T23:01:40.457Z,12.30
2018-09-14T23:04:09.568Z,12.40
2018-09-14T23:06:38.545Z,12.40
2018-09-14T23:09:07.755Z,12.50
2018-09-14T23:11:37.295Z,12.50
2018-09-14T23:14:05.792Z,12.60
2018-09-14T23:16:35.535Z,12.60
2018-09-14T23:19:04.485Z,12.70
2018-09-14T23:21:33.089Z,12.80
2018-09-14T23:24:02.321Z,12.80
2018-09-14T23:26:32.787Z,12.80
2018-09-14T23:29:01.604Z,12.80
2018-09-14T23:31:30.341Z,12.90
2018-09-14T23:33:58.715Z,12.90
2018-09-14T23:36:27.514Z,12.90
2018-09-14T23:38:57.007Z,12.90
2018-09-14T23:41:26.440Z,12.90
2018-09-14T23:43:56.249Z,12.90
2018-09-14T23:46:24.964Z,12.90
2018-09-14T23:48:53.548Z,12.90
2018-09-14T23:51:21.987Z,12.80
2018-09-14T23:53:51.563Z,12.80
2018-09-14T23:56:20.917Z,12.80
2018-09-14T23:58:50.039Z,12.70
